Bloomfield, MT (59315)

2:04 PM MDT on July 05, 2015 (GMT -0600)
SE Bloomfield | | Change Station
CLOSE
Current Station
Personal Weather Station
Location: Bloomfield, MT
Elevation: 2753 ft
Nearby Weather Stations

Elev 2753 ft 47.36 °N, 104.79 °W | Updated 7 seconds ago

Mostly Cloudy
Mostly Cloudy
70.4 °F
Feels Like 77 °F
N
8.0
Wind Variable Wind from NNW
Gusts 13.0 mph

Today
High -- | Low -- °F
--% Chance of Precip.
Yesterday
High -- | Low -- °F
Precip. -- in
5:09 AM 8:58 PM
Waning Gibbous, 82% visible
Pressure 30.02 in
Visibility 3.0 miles
Clouds Few 10000 ft
Heat Index 77 °F
Dew Point 52 °F
Humidity 53%
Rainfall 0.38 in
Snow Depth Not available.
UV 10 out of 12
Pollen 4.90 out of 12
Air Quality Not available.
Flu Activity Not available.
METAR KGDV 051955Z AUTO 36013G16KT 3SM FEW100 22/11 A3002 RMK AO1

More Conditions Fewer Conditions

Pressure 30.02 in
Visibility 3.0 miles
Clouds Few 10000 ft
Heat Index 77 °F
Dew Point 52 °F
Humidity 53%
Rainfall 0.38 in
Snow Depth Not available.
UV 10 out of 12
Pollen 4.90 out of 12
Air Quality Not available.
Flu Activity Not available.
METAR KGDV 051955Z AUTO 36013G16KT 3SM FEW100 22/11 A3002 RMK AO1

More Conditions Fewer Conditions

10-Day Weather Forecast

×

Almanac

Astronomy

Jul. 05, 2015 Rise Set
Actual Time
Civil Twilight
Nautical Twilight
Astronomical Twilight
Moon
Length of Visible Light
Length of Day
Tomorrow will be .
, % of the Moon is Illuminated

Today's Extremes

State Highs State Lows

Community

WunderPhotos

Upload Photos

1,835,371 photos uploaded!

WunderBlogs® & News

Nearby

Air Quality

  Air Quality AQ Index Pollutant
Not available.

Snow Depth

Station Depth Elevation

Earthquake Activity

City Distance Mag. Time & Date
Minimum magnitude displayed is 2.5.

Coastal Water Temperatures

Place Temperature

Stations

Nearby Weather Stations

Station Location Temp. Windchill Dew Point Humidity Wind Precip. Elev Updated Type